createdAt,value
2023-03-12T00:02:59.885Z,7.70
2023-03-12T00:06:10.601Z,4.90
2023-03-12T00:09:13.969Z,5.43
2023-03-12T00:12:16.712Z,5.47
2023-03-12T00:15:19.614Z,5.80
2023-03-12T00:18:22.225Z,6.32
2023-03-12T00:21:24.992Z,7.10
2023-03-12T00:24:27.675Z,6.82
2023-03-12T00:27:32.157Z,4.90
2023-03-12T00:30:34.816Z,5.93
2023-03-12T00:33:37.476Z,5.30
2023-03-12T00:36:41.374Z,6.53
2023-03-12T00:39:44.729Z,6.47
2023-03-12T00:42:47.349Z,4.40
2023-03-12T00:45:49.956Z,7.00
2023-03-12T00:48:52.890Z,4.70
2023-03-12T00:51:55.620Z,4.95
2023-03-12T00:54:58.977Z,4.68
2023-03-12T00:58:01.902Z,5.82
2023-03-12T01:01:05.203Z,5.68
2023-03-12T01:04:10.561Z,5.35
2023-03-12T01:07:13.924Z,5.45
2023-03-12T01:10:20.326Z,4.60
2023-03-12T01:13:23.402Z,4.43
2023-03-12T01:16:30.555Z,5.57
2023-03-12T01:19:33.162Z,6.30
2023-03-12T01:22:36.825Z,6.35
2023-03-12T01:25:41.277Z,4.60
2023-03-12T01:28:44.755Z,5.05
2023-03-12T01:31:47.608Z,4.60
2023-03-12T01:34:50.379Z,6.80
2023-03-12T01:37:53.236Z,5.78
2023-03-12T01:40:55.895Z,6.60
2023-03-12T01:44:00.719Z,5.65
2023-03-12T01:47:03.517Z,5.25
2023-03-12T01:50:08.286Z,4.95
2023-03-12T01:53:12.873Z,4.70
2023-03-12T01:56:18.556Z,4.10
2023-03-12T02:02:28.847Z,4.07
2023-03-12T02:05:56.372Z,5.05
2023-03-12T02:09:02.384Z,5.10
2023-03-12T02:12:07.405Z,5.10
2023-03-12T02:15:10.915Z,4.57
2023-03-12T02:18:18.169Z,4.68
2023-03-12T02:21:23.923Z,7.53
2023-03-12T02:24:57.527Z,5.70
2023-03-12T02:28:03.332Z,5.68
2023-03-12T02:31:07.339Z,4.72
2023-03-12T02:34:10.254Z,4.93
2023-03-12T02:37:12.884Z,6.43
2023-03-12T02:40:23.060Z,6.55
2023-03-12T02:43:25.696Z,5.72
2023-03-12T02:46:33.550Z,6.18
2023-03-12T02:49:36.320Z,8.15
2023-03-12T02:52:39.335Z,5.03
2023-03-12T02:55:42.244Z,5.53
2023-03-12T02:58:45.092Z,5.68
2023-03-12T03:01:47.964Z,6.18
2023-03-12T03:04:50.697Z,5.95
2023-03-12T03:07:53.609Z,5.55
2023-03-12T03:10:56.090Z,5.82
2023-03-12T03:13:58.784Z,7.13
2023-03-12T03:17:01.469Z,6.22
2023-03-12T03:20:11.083Z,5.57
2023-03-12T03:23:13.903Z,7.40
2023-03-12T03:26:19.924Z,5.55
2023-03-12T03:29:22.870Z,5.70
2023-03-12T03:32:26.401Z,5.78
2023-03-12T03:35:29.107Z,6.47
2023-03-12T03:38:33.445Z,7.15
2023-03-12T03:41:36.442Z,5.95
2023-03-12T03:44:39.437Z,7.13
2023-03-12T03:47:42.002Z,7.00
2023-03-12T03:50:48.025Z,8.02
2023-03-12T03:53:51.554Z,7.75
2023-03-12T03:56:54.769Z,9.00
2023-03-12T04:00:03.522Z,6.10
2023-03-12T04:03:16.232Z,8.02
2023-03-12T04:06:19.042Z,7.57
2023-03-12T04:09:21.989Z,6.82
2023-03-12T04:12:26.149Z,7.60
2023-03-12T04:15:28.693Z,7.60
2023-03-12T04:18:32.795Z,7.75
2023-03-12T04:21:39.581Z,6.55
2023-03-12T04:24:42.220Z,6.88
2023-03-12T04:27:45.071Z,7.22
2023-03-12T04:30:59.889Z,6.85
2023-03-12T04:34:05.497Z,6.88
2023-03-12T04:37:11.355Z,6.60
2023-03-12T04:40:15.623Z,6.32
2023-03-12T04:43:21.050Z,8.55
2023-03-12T04:46:24.699Z,8.90
2023-03-12T04:49:27.849Z,6.85
2023-03-12T04:52:31.062Z,7.80
2023-03-12T04:55:33.843Z,10.88
2023-03-12T04:58:36.508Z,7.97
2023-03-12T05:01:39.476Z,7.50
2023-03-12T05:04:48.283Z,7.88
2023-03-12T05:07:50.863Z,8.25
2023-03-12T05:10:53.911Z,9.20
2023-03-12T05:13:57.075Z,7.78
2023-03-12T05:16:59.971Z,11.90
2023-03-12T05:20:05.204Z,9.27
2023-03-12T05:23:08.475Z,11.93
2023-03-12T05:26:25.210Z,11.98
2023-03-12T05:29:35.458Z,10.85
2023-03-12T05:32:39.296Z,11.70
2023-03-12T05:35:42.030Z,11.68
2023-03-12T05:38:44.710Z,10.63
2023-03-12T05:41:49.482Z,12.55
2023-03-12T05:44:54.494Z,12.35
2023-03-12T05:47:58.741Z,11.07
2023-03-12T05:51:03.212Z,11.20
2023-03-12T05:54:07.738Z,13.70
2023-03-12T05:57:10.291Z,12.23
2023-03-12T06:00:14.924Z,14.40
2023-03-12T06:03:22.681Z,11.57
2023-03-12T06:06:25.890Z,14.98
2023-03-12T06:09:30.062Z,12.50
2023-03-12T06:12:32.885Z,10.73
2023-03-12T06:15:36.442Z,13.05
2023-03-12T06:18:41.679Z,12.40
2023-03-12T06:21:45.672Z,11.70
2023-03-12T06:24:48.850Z,11.85
2023-03-12T06:27:52.989Z,10.88
2023-03-12T06:30:56.618Z,11.32
2023-03-12T06:33:59.212Z,13.13
2023-03-12T06:37:01.872Z,13.02
2023-03-12T06:40:05.191Z,11.55
2023-03-12T06:43:12.296Z,10.15
2023-03-12T06:46:18.465Z,10.85
2023-03-12T06:52:24.388Z,11.23
2023-03-12T06:55:26.892Z,11.43
2023-03-12T06:58:29.879Z,11.40
2023-03-12T07:01:32.737Z,11.18
2023-03-12T07:04:35.556Z,11.05
2023-03-12T07:07:39.032Z,9.57
2023-03-12T07:10:42.230Z,10.57
2023-03-12T07:13:44.945Z,9.90
2023-03-12T07:16:48.030Z,11.20
2023-03-12T07:19:50.659Z,11.10
2023-03-12T07:22:53.277Z,9.93
2023-03-12T07:25:55.876Z,11.02
2023-03-12T07:28:58.389Z,10.88
2023-03-12T07:32:01.045Z,12.95
2023-03-12T07:35:05.333Z,11.43
2023-03-12T07:38:09.086Z,10.85
2023-03-12T07:41:11.715Z,9.88
2023-03-12T07:44:14.817Z,11.98
2023-03-12T07:47:24.189Z,10.05
2023-03-12T07:50:27.423Z,10.25
2023-03-12T07:53:30.344Z,11.50
2023-03-12T07:56:35.006Z,8.65
2023-03-12T07:59:37.884Z,11.15
2023-03-12T08:02:41.172Z,9.32
2023-03-12T08:05:44.196Z,11.00
2023-03-12T08:08:46.989Z,8.55
2023-03-12T08:11:49.629Z,8.52
2023-03-12T08:14:52.236Z,9.25
2023-03-12T08:17:55.073Z,9.15
2023-03-12T08:20:57.832Z,8.25
2023-03-12T08:24:00.650Z,7.90
2023-03-12T08:27:12.219Z,9.65
2023-03-12T08:30:14.859Z,9.45
2023-03-12T08:33:17.900Z,10.45
2023-03-12T08:36:22.371Z,8.25
2023-03-12T08:39:25.547Z,8.13
2023-03-12T08:42:28.322Z,9.18
2023-03-12T08:45:31.218Z,8.82
2023-03-12T08:48:34.240Z,9.63
2023-03-12T08:51:36.874Z,12.05
2023-03-12T08:54:39.496Z,9.80
2023-03-12T08:57:42.053Z,7.88
2023-03-12T09:00:44.871Z,8.77
2023-03-12T09:03:51.000Z,7.38
2023-03-12T09:06:53.620Z,8.10
2023-03-12T09:09:56.298Z,8.73
2023-03-12T09:12:59.257Z,7.95
2023-03-12T09:16:03.081Z,8.75
2023-03-12T09:19:05.974Z,9.40
2023-03-12T09:22:08.846Z,7.28
2023-03-12T09:25:12.397Z,7.93
2023-03-12T09:28:16.702Z,7.82
2023-03-12T09:34:22.082Z,7.32
2023-03-12T09:37:24.852Z,8.50
2023-03-12T09:40:30.923Z,9.07
2023-03-12T09:43:47.844Z,6.68
2023-03-12T09:46:57.371Z,8.18
2023-03-12T09:50:05.846Z,6.35
2023-03-12T09:53:20.799Z,7.75
2023-03-12T09:56:23.890Z,7.03
2023-03-12T09:59:26.571Z,7.22
2023-03-12T10:02:50.880Z,6.70
2023-03-12T10:06:15.512Z,9.07
2023-03-12T10:09:36.808Z,7.93
2023-03-12T10:12:51.596Z,6.95
2023-03-12T10:16:12.983Z,6.63
2023-03-12T10:19:33.116Z,6.63
2023-03-12T10:23:01.116Z,7.32
2023-03-12T10:26:06.192Z,6.15
2023-03-12T10:29:15.434Z,6.00
2023-03-12T10:32:37.567Z,6.22
2023-03-12T10:35:40.771Z,5.63
2023-03-12T10:38:43.394Z,5.93
2023-03-12T10:41:48.538Z,6.18
2023-03-12T10:44:58.769Z,8.05
2023-03-12T10:48:07.319Z,5.20
2023-03-12T10:51:12.119Z,6.53
2023-03-12T10:54:34.907Z,5.75
2023-03-12T10:57:42.246Z,5.70
2023-03-12T11:00:58.491Z,7.90
2023-03-12T11:04:18.986Z,10.95
2023-03-12T11:07:34.006Z,8.18
2023-03-12T11:10:47.409Z,6.97
2023-03-12T11:14:07.447Z,6.82
2023-03-12T11:17:21.798Z,5.72
2023-03-12T11:20:29.903Z,5.90
2023-03-12T11:23:32.524Z,7.07
2023-03-12T11:27:03.811Z,4.90
2023-03-12T11:30:11.390Z,4.57
2023-03-12T11:33:14.508Z,4.38
2023-03-12T11:36:37.346Z,4.82
2023-03-12T11:40:09.935Z,3.83
2023-03-12T11:43:43.704Z,3.78
2023-03-12T11:47:08.674Z,3.22
2023-03-12T11:50:17.353Z,2.97
2023-03-12T11:53:46.237Z,3.97
2023-03-12T11:56:55.410Z,3.00
2023-03-12T12:00:18.208Z,3.35
2023-03-12T12:03:38.799Z,3.03
2023-03-12T12:06:46.878Z,3.95
2023-03-12T12:10:28.888Z,3.03
2023-03-12T12:14:00.967Z,3.35
2023-03-12T12:17:30.756Z,3.40
2023-03-12T12:20:51.022Z,3.67
2023-03-12T12:24:16.376Z,4.22
2023-03-12T12:27:24.602Z,4.68
2023-03-12T12:30:56.444Z,3.50
2023-03-12T12:34:18.716Z,3.65
2023-03-12T12:37:42.996Z,3.58
2023-03-12T12:40:54.597Z,3.00
2023-03-12T12:44:06.487Z,4.22
2023-03-12T12:47:17.410Z,3.70
2023-03-12T12:50:24.946Z,3.35
2023-03-12T12:54:04.903Z,3.05
2023-03-12T12:57:29.289Z,4.63
2023-03-12T13:00:55.823Z,3.45
2023-03-12T13:04:06.885Z,3.20
2023-03-12T13:07:12.496Z,3.55
2023-03-12T13:10:58.037Z,4.50
2023-03-12T13:17:21.970Z,3.42
2023-03-12T13:20:33.420Z,3.88
2023-03-12T13:23:36.362Z,3.03
2023-03-12T13:27:00.110Z,3.03
2023-03-12T13:30:45.149Z,3.08
2023-03-12T13:33:50.667Z,3.20
2023-03-12T13:36:59.597Z,4.22
2023-03-12T13:40:05.867Z,5.35
2023-03-12T13:43:15.362Z,3.83
2023-03-12T13:46:30.095Z,7.35
2023-03-12T13:49:56.381Z,11.73
2023-03-12T13:53:21.042Z,5.55
2023-03-12T13:56:31.943Z,6.10
2023-03-12T13:59:35.105Z,5.40
2023-03-12T14:02:45.927Z,6.07
2023-03-12T14:06:11.016Z,3.67
2023-03-12T14:09:35.192Z,3.70
2023-03-12T14:13:00.765Z,3.20
2023-03-12T14:16:53.026Z,4.90
2023-03-12T14:20:12.203Z,3.78
2023-03-12T14:23:17.214Z,3.90
2023-03-12T14:26:24.653Z,3.85
2023-03-12T14:29:42.642Z,3.38
2023-03-12T14:32:48.268Z,3.22
2023-03-12T14:36:03.562Z,4.22
2023-03-12T14:39:30.787Z,3.45
2023-03-12T14:42:36.730Z,3.97
2023-03-12T14:45:40.966Z,5.22
2023-03-12T14:48:47.190Z,16.83
2023-03-12T14:51:50.456Z,29.05
2023-03-12T14:55:05.004Z,7.88
2023-03-12T14:58:17.591Z,4.03
2023-03-12T15:01:26.792Z,3.42
2023-03-12T15:04:33.705Z,4.43
2023-03-12T15:07:39.627Z,3.92
2023-03-12T15:10:52.309Z,3.75
2023-03-12T15:14:01.728Z,4.13
2023-03-12T15:17:07.944Z,4.63
2023-03-12T15:20:16.011Z,3.75
2023-03-12T15:23:20.461Z,4.40
2023-03-12T15:26:29.598Z,4.05
2023-03-12T15:29:33.597Z,5.45
2023-03-12T15:32:36.829Z,4.30
2023-03-12T15:35:43.082Z,3.40
2023-03-12T15:39:14.604Z,4.50
2023-03-12T15:42:21.171Z,4.22
2023-03-12T15:45:36.762Z,4.90
2023-03-12T15:48:41.628Z,5.20
2023-03-12T15:52:05.834Z,4.38
2023-03-12T15:55:14.441Z,4.47
2023-03-12T15:58:36.504Z,5.57
2023-03-12T16:01:48.028Z,4.72
2023-03-12T16:04:51.444Z,4.70
2023-03-12T16:07:55.153Z,4.05
2023-03-12T16:11:00.030Z,4.30
2023-03-12T16:14:30.605Z,5.20
2023-03-12T16:17:34.378Z,3.92
2023-03-12T16:20:37.906Z,3.78
2023-03-12T16:23:41.155Z,4.18
2023-03-12T16:26:59.187Z,5.30
2023-03-12T16:30:03.933Z,5.28
2023-03-12T16:33:09.279Z,6.13
2023-03-12T16:36:18.090Z,4.03
2023-03-12T16:39:22.347Z,6.32
2023-03-12T16:42:25.826Z,4.93
2023-03-12T16:45:29.328Z,6.35
2023-03-12T16:48:33.003Z,5.80
2023-03-12T16:51:37.847Z,6.82
2023-03-12T16:54:41.520Z,6.25
2023-03-12T16:57:53.626Z,6.28
2023-03-12T17:00:57.905Z,6.78
2023-03-12T17:04:01.648Z,6.60
2023-03-12T17:07:05.372Z,6.15
2023-03-12T17:10:10.615Z,6.20
2023-03-12T17:13:23.748Z,4.93
2023-03-12T17:16:28.688Z,13.27
2023-03-12T17:19:32.652Z,13.55
2023-03-12T17:22:36.418Z,7.32
2023-03-12T17:25:43.636Z,5.10
2023-03-12T17:28:47.532Z,5.43
2023-03-12T17:31:51.317Z,6.93
2023-03-12T17:34:57.182Z,6.25
2023-03-12T17:38:01.639Z,8.02
2023-03-12T17:41:11.417Z,7.22
2023-03-12T17:44:20.863Z,7.15
2023-03-12T17:47:27.234Z,8.35
2023-03-12T17:50:32.352Z,7.95
2023-03-12T17:53:36.570Z,7.25
2023-03-12T17:56:40.891Z,7.35
2023-03-12T17:59:44.679Z,9.27
2023-03-12T18:02:49.219Z,6.00
2023-03-12T18:05:52.665Z,7.20
2023-03-12T18:08:56.395Z,9.13
2023-03-12T18:12:00.694Z,8.13
2023-03-12T18:15:05.697Z,10.95
2023-03-12T18:18:09.416Z,10.38
2023-03-12T18:21:14.889Z,14.93
2023-03-12T18:24:21.220Z,10.63
2023-03-12T18:27:25.052Z,12.18
2023-03-12T18:30:29.064Z,9.80
2023-03-12T18:36:37.574Z,12.35
2023-03-12T18:39:41.773Z,12.05
2023-03-12T18:42:46.113Z,8.80
2023-03-12T18:45:51.581Z,8.93
2023-03-12T18:48:55.296Z,10.68
2023-03-12T18:51:58.489Z,9.57
2023-03-12T18:55:02.400Z,14.57
2023-03-12T18:58:06.152Z,10.45
2023-03-12T19:01:13.045Z,10.27
2023-03-12T19:04:20.691Z,10.25
2023-03-12T19:07:25.729Z,13.85
2023-03-12T19:10:29.511Z,13.77
2023-03-12T19:13:33.317Z,17.13
2023-03-12T19:16:38.462Z,17.15
2023-03-12T19:22:48.352Z,22.67
2023-03-12T19:25:52.159Z,23.98
2023-03-12T19:28:56.026Z,29.80
2023-03-12T19:31:59.823Z,37.50
2023-03-12T19:35:03.752Z,36.70
2023-03-12T19:38:08.799Z,39.63
2023-03-12T19:41:12.860Z,35.97
2023-03-12T19:44:16.728Z,37.55
2023-03-12T19:47:22.450Z,41.90
2023-03-12T19:50:29.204Z,38.20
2023-03-12T19:53:33.206Z,43.92
2023-03-12T19:56:39.383Z,41.47
2023-03-12T19:59:43.804Z,45.03
2023-03-12T20:02:49.382Z,41.15
2023-03-12T20:05:53.583Z,43.08
2023-03-12T20:08:57.651Z,39.83
2023-03-12T20:12:02.782Z,39.85
2023-03-12T20:15:27.106Z,37.35
2023-03-12T20:18:31.372Z,41.20
2023-03-12T20:21:36.747Z,40.13
2023-03-12T20:24:40.814Z,38.05
2023-03-12T20:27:47.749Z,30.88
2023-03-12T20:30:53.879Z,35.80
2023-03-12T20:33:59.433Z,34.42
2023-03-12T20:40:11.625Z,31.85
2023-03-12T20:43:15.249Z,32.88
2023-03-12T20:46:19.590Z,36.83
2023-03-12T20:49:23.230Z,34.00
2023-03-12T20:52:27.026Z,33.50
2023-03-12T20:55:32.071Z,34.13
2023-03-12T20:58:35.790Z,34.22
2023-03-12T21:01:39.947Z,36.13
2023-03-12T21:04:44.008Z,37.15
2023-03-12T21:07:47.438Z,37.63
2023-03-12T21:10:50.825Z,43.15
2023-03-12T21:13:54.763Z,38.60
2023-03-12T21:16:58.407Z,42.67
2023-03-12T21:20:04.586Z,38.95
2023-03-12T21:23:10.143Z,41.88
2023-03-12T21:26:13.172Z,36.22
2023-03-12T21:29:15.968Z,42.45
2023-03-12T21:32:19.368Z,40.28
2023-03-12T21:35:24.481Z,39.55
2023-03-12T21:38:27.576Z,44.25
2023-03-12T21:41:31.201Z,38.13
2023-03-12T21:44:38.322Z,36.00
2023-03-12T21:47:41.436Z,40.20
2023-03-12T21:50:44.126Z,41.05
2023-03-12T21:53:47.134Z,35.42
2023-03-12T21:56:49.750Z,40.03
2023-03-12T21:59:52.597Z,39.08
2023-03-12T22:02:55.171Z,44.85
2023-03-12T22:05:57.659Z,42.50
2023-03-12T22:09:01.003Z,38.85
2023-03-12T22:12:04.358Z,38.00
2023-03-12T22:15:08.482Z,33.05
2023-03-12T22:18:11.073Z,32.75
2023-03-12T22:21:16.648Z,28.27
2023-03-12T22:24:19.697Z,24.67
2023-03-12T22:27:22.300Z,23.88
2023-03-12T22:30:25.283Z,25.50
2023-03-12T22:33:29.680Z,27.85
2023-03-12T22:36:32.516Z,24.27
2023-03-12T22:39:36.498Z,26.52
2023-03-12T22:42:41.139Z,26.30
2023-03-12T22:45:43.912Z,21.42
2023-03-12T22:48:47.301Z,25.75
2023-03-12T22:51:49.877Z,23.70
2023-03-12T22:54:52.496Z,22.50
2023-03-12T22:57:55.091Z,23.83
2023-03-12T23:01:18.482Z,23.98
2023-03-12T23:04:21.256Z,22.95
2023-03-12T23:07:23.870Z,23.38
2023-03-12T23:10:26.780Z,22.08
2023-03-12T23:13:30.837Z,23.50
2023-03-12T23:16:33.496Z,26.55
2023-03-12T23:19:36.543Z,27.20
2023-03-12T23:22:39.327Z,25.70
2023-03-12T23:25:42.343Z,24.73
2023-03-12T23:28:47.461Z,22.98
2023-03-12T23:31:50.852Z,23.42
2023-03-12T23:34:53.578Z,23.25
2023-03-12T23:37:56.572Z,24.40
2023-03-12T23:41:11.224Z,19.15
2023-03-12T23:44:13.825Z,20.88
2023-03-12T23:47:16.507Z,17.90
2023-03-12T23:50:19.770Z,20.70
2023-03-12T23:53:22.318Z,22.63
2023-03-12T23:56:29.917Z,20.88
2023-03-12T23:59:32.452Z,19.88
